createdAt,value
2019-03-17T00:01:30.068Z,99.90
2019-03-17T00:04:01.251Z,99.90
2019-03-17T00:06:32.472Z,99.90
2019-03-17T00:09:03.912Z,99.90
2019-03-17T00:11:35.163Z,99.90
2019-03-17T00:14:06.212Z,99.90
2019-03-17T00:16:37.568Z,99.90
2019-03-17T00:19:08.644Z,99.90
2019-03-17T00:21:39.718Z,99.90
2019-03-17T00:24:10.846Z,99.90
2019-03-17T00:26:41.904Z,99.90
2019-03-17T00:29:13.077Z,99.90
2019-03-17T00:31:45.185Z,99.90
2019-03-17T00:34:16.271Z,99.90
2019-03-17T00:36:47.378Z,99.90
2019-03-17T00:39:18.534Z,99.90
2019-03-17T00:41:49.572Z,99.90
2019-03-17T00:44:20.742Z,99.90
2019-03-17T00:46:51.802Z,99.90
2019-03-17T00:49:22.880Z,99.90
2019-03-17T00:52:12.964Z,99.90
2019-03-17T00:54:44.192Z,99.90
2019-03-17T00:57:15.270Z,99.90
2019-03-17T00:59:46.342Z,99.90
2019-03-17T01:02:17.402Z,99.90
2019-03-17T01:04:56.097Z,99.90
2019-03-17T01:07:21.408Z,99.90
2019-03-17T01:09:52.794Z,99.90
2019-03-17T01:12:23.875Z,99.90
2019-03-17T01:14:54.945Z,99.90
2019-03-17T01:17:26.012Z,99.90
2019-03-17T01:19:57.084Z,99.90
2019-03-17T01:22:28.186Z,99.90
2019-03-17T01:24:59.717Z,99.90
2019-03-17T01:27:30.893Z,99.90
2019-03-17T01:30:01.937Z,99.90
2019-03-17T01:32:34.089Z,99.90
2019-03-17T01:35:09.611Z,99.90
2019-03-17T01:37:38.773Z,99.90
2019-03-17T01:40:09.878Z,99.90
2019-03-17T01:42:40.929Z,99.90
2019-03-17T01:45:12.032Z,99.90
2019-03-17T01:47:43.066Z,99.90
2019-03-17T01:50:14.112Z,99.90
2019-03-17T01:52:45.358Z,99.90
2019-03-17T01:55:16.438Z,99.90
2019-03-17T01:57:47.530Z,99.90
2019-03-17T02:00:18.560Z,99.90
2019-03-17T02:02:49.704Z,99.90
2019-03-17T02:05:22.300Z,99.90
2019-03-17T02:07:53.728Z,99.90
2019-03-17T02:10:25.150Z,99.90
2019-03-17T02:12:56.296Z,99.90
2019-03-17T02:15:27.724Z,99.90
2019-03-17T02:17:58.792Z,99.90
2019-03-17T02:20:29.814Z,99.90
2019-03-17T02:23:01.060Z,99.90
2019-03-17T02:25:32.140Z,99.90
2019-03-17T02:28:03.216Z,99.90
2019-03-17T02:30:34.409Z,99.90
2019-03-17T02:33:05.586Z,99.90
2019-03-17T02:35:40.041Z,99.90
2019-03-17T02:38:10.528Z,99.90
2019-03-17T02:40:41.641Z,99.90
2019-03-17T02:43:13.907Z,99.90
2019-03-17T02:45:44.958Z,99.90
2019-03-17T02:48:16.044Z,99.90
2019-03-17T02:50:47.068Z,99.90
2019-03-17T02:53:18.127Z,99.90
2019-03-17T02:55:49.275Z,99.90
2019-03-17T02:58:20.330Z,99.90
2019-03-17T03:00:51.430Z,99.90
2019-03-17T03:03:22.451Z,99.90
2019-03-17T03:05:55.530Z,99.90
2019-03-17T03:08:26.279Z,99.90
2019-03-17T03:10:57.998Z,99.90
2019-03-17T03:13:29.174Z,99.90
2019-03-17T03:16:00.255Z,99.90
2019-03-17T03:18:31.720Z,99.90
2019-03-17T03:21:04.286Z,99.90
2019-03-17T03:23:35.311Z,99.90
2019-03-17T03:26:06.557Z,99.90
2019-03-17T03:28:37.665Z,99.90
2019-03-17T03:31:08.797Z,99.90
2019-03-17T03:33:39.909Z,99.90
2019-03-17T03:36:12.085Z,99.90
2019-03-17T03:38:43.287Z,99.90
2019-03-17T03:41:14.345Z,99.90
2019-03-17T03:43:45.421Z,99.90
2019-03-17T03:46:16.498Z,99.90
2019-03-17T03:48:48.616Z,99.90
2019-03-17T03:51:19.722Z,99.90
2019-03-17T03:53:50.775Z,99.90
2019-03-17T03:56:21.854Z,99.90
2019-03-17T03:58:52.877Z,99.90
2019-03-17T04:01:23.954Z,99.90
2019-03-17T04:03:55.403Z,99.90
2019-03-17T04:06:27.223Z,99.90
2019-03-17T04:08:58.508Z,99.90
2019-03-17T04:11:30.065Z,99.90
2019-03-17T04:14:01.119Z,99.90
2019-03-17T04:16:32.273Z,99.90
2019-03-17T04:19:03.324Z,99.90
2019-03-17T04:21:34.352Z,99.90
2019-03-17T04:24:05.523Z,99.90
2019-03-17T04:26:36.572Z,99.90
2019-03-17T04:29:07.606Z,99.90
2019-03-17T04:31:38.737Z,99.90
2019-03-17T04:34:09.792Z,99.90
2019-03-17T04:36:40.949Z,99.90
2019-03-17T04:39:12.034Z,99.90
2019-03-17T04:41:43.105Z,99.90
2019-03-17T04:44:20.725Z,99.90
2019-03-17T04:46:47.033Z,99.90
2019-03-17T04:49:18.182Z,99.90
2019-03-17T04:51:49.241Z,99.90
2019-03-17T04:54:20.314Z,99.90
2019-03-17T04:56:51.351Z,99.90
2019-03-17T04:59:22.642Z,99.90
2019-03-17T05:01:53.766Z,99.90
2019-03-17T05:04:24.953Z,99.90
2019-03-17T05:06:56.012Z,99.90
2019-03-17T05:09:27.371Z,99.90
2019-03-17T05:11:58.987Z,99.90
2019-03-17T05:14:30.338Z,99.90
2019-03-17T05:17:01.424Z,99.90
2019-03-17T05:19:34.108Z,99.90
2019-03-17T05:22:05.531Z,99.90
2019-03-17T05:24:36.740Z,99.90
2019-03-17T05:27:08.085Z,99.90
2019-03-17T05:29:50.796Z,99.90
2019-03-17T05:32:22.214Z,99.90
2019-03-17T05:34:53.266Z,99.90
2019-03-17T05:37:24.530Z,99.90
2019-03-17T05:39:55.582Z,99.90
2019-03-17T05:42:26.726Z,99.90
2019-03-17T05:44:58.024Z,99.90
2019-03-17T05:47:29.268Z,99.90
2019-03-17T05:50:00.463Z,99.90
2019-03-17T05:52:32.042Z,99.90
2019-03-17T05:55:03.078Z,99.90
2019-03-17T05:57:34.456Z,99.90
2019-03-17T06:00:06.564Z,99.90
2019-03-17T06:02:37.966Z,99.90
2019-03-17T06:05:10.481Z,99.90
2019-03-17T06:07:41.728Z,99.90
2019-03-17T06:10:12.937Z,99.90
2019-03-17T06:12:44.488Z,99.90
2019-03-17T06:15:15.617Z,99.90
2019-03-17T06:17:47.197Z,99.90
2019-03-17T06:20:18.372Z,99.90
2019-03-17T06:22:49.698Z,99.90
2019-03-17T06:25:20.889Z,99.90
2019-03-17T06:27:52.075Z,99.90
2019-03-17T06:30:23.340Z,99.90
2019-03-17T06:32:54.579Z,99.90
2019-03-17T06:35:25.713Z,99.90
2019-03-17T06:37:57.107Z,99.90
2019-03-17T06:40:28.450Z,99.90
2019-03-17T06:42:59.736Z,99.90
2019-03-17T06:45:31.018Z,99.90
2019-03-17T06:48:02.124Z,99.90
2019-03-17T06:50:33.264Z,99.90
2019-03-17T06:53:04.398Z,99.90
2019-03-17T06:55:35.612Z,99.90
2019-03-17T06:58:06.776Z,99.90
2019-03-17T07:00:37.948Z,99.90
2019-03-17T07:03:08.980Z,99.90
2019-03-17T07:05:40.039Z,99.90
2019-03-17T07:08:11.084Z,99.90
2019-03-17T07:10:42.148Z,99.90
2019-03-17T07:13:13.314Z,99.90
2019-03-17T07:15:44.712Z,99.90
2019-03-17T07:18:15.773Z,99.90
2019-03-17T07:20:46.981Z,99.90
2019-03-17T07:23:18.078Z,99.90
2019-03-17T07:25:49.158Z,99.90
2019-03-17T07:28:21.224Z,99.90
2019-03-17T07:30:52.286Z,99.90
2019-03-17T07:33:23.365Z,99.90
2019-03-17T07:35:54.391Z,99.90
2019-03-17T07:38:25.548Z,99.90
2019-03-17T07:40:56.840Z,99.90
2019-03-17T07:43:27.903Z,99.90
2019-03-17T07:45:58.962Z,99.90
2019-03-17T07:48:30.032Z,99.90
2019-03-17T07:51:01.197Z,99.90
2019-03-17T07:53:32.518Z,99.90
2019-03-17T07:56:03.672Z,99.90
2019-03-17T07:58:34.810Z,99.90
2019-03-17T08:01:05.892Z,99.90
2019-03-17T08:03:37.001Z,99.90
2019-03-17T08:06:08.054Z,99.90
2019-03-17T08:08:39.143Z,99.90
2019-03-17T08:11:10.262Z,99.90
2019-03-17T08:13:41.673Z,99.90
2019-03-17T08:16:12.766Z,99.90
2019-03-17T08:18:43.834Z,99.90
2019-03-17T08:21:14.968Z,99.90
2019-03-17T08:23:46.142Z,99.90
2019-03-17T08:26:17.224Z,99.90
2019-03-17T08:28:48.264Z,99.90
2019-03-17T08:31:19.423Z,99.90
2019-03-17T08:33:50.775Z,99.90
2019-03-17T08:36:21.970Z,99.90
2019-03-17T08:38:53.032Z,99.90
2019-03-17T08:41:24.084Z,99.90
2019-03-17T08:43:55.162Z,99.90
2019-03-17T08:46:26.216Z,99.90
2019-03-17T08:48:57.287Z,99.90
2019-03-17T08:51:28.435Z,99.90
2019-03-17T08:53:59.914Z,99.90
2019-03-17T08:56:31.165Z,99.90
2019-03-17T08:59:02.222Z,99.90
2019-03-17T09:01:33.388Z,99.90
2019-03-17T09:04:04.464Z,99.90
2019-03-17T09:06:35.593Z,99.90
2019-03-17T09:09:08.463Z,99.90
2019-03-17T09:11:39.625Z,99.90
2019-03-17T09:14:10.890Z,99.90
2019-03-17T09:16:41.962Z,99.90
2019-03-17T09:19:13.027Z,99.90
2019-03-17T09:21:44.104Z,99.90
2019-03-17T09:24:17.529Z,99.90
2019-03-17T09:26:47.964Z,99.90
2019-03-17T09:29:19.036Z,99.90
2019-03-17T09:31:50.085Z,99.90
2019-03-17T09:34:21.220Z,99.90
2019-03-17T09:36:52.690Z,99.90
2019-03-17T09:39:23.750Z,99.90
2019-03-17T09:41:54.846Z,99.90
2019-03-17T09:44:26.060Z,99.90
2019-03-17T09:46:57.102Z,99.90
2019-03-17T09:49:28.359Z,99.90
2019-03-17T09:51:59.416Z,99.90
2019-03-17T09:54:30.559Z,99.90
2019-03-17T09:57:01.741Z,99.90
2019-03-17T09:59:32.844Z,99.90
2019-03-17T10:02:04.111Z,99.90
2019-03-17T10:04:35.206Z,99.90
2019-03-17T10:07:06.538Z,99.90
2019-03-17T10:09:37.755Z,99.90
2019-03-17T10:12:08.890Z,99.90
2019-03-17T10:14:40.312Z,99.90
2019-03-17T10:17:11.436Z,99.90
2019-03-17T10:19:42.559Z,99.90
2019-03-17T10:22:13.619Z,99.90
2019-03-17T10:24:44.703Z,99.90
2019-03-17T10:27:15.750Z,99.90
2019-03-17T10:29:46.992Z,99.90
2019-03-17T10:32:18.102Z,99.90
2019-03-17T10:34:49.148Z,99.90
2019-03-17T10:37:20.240Z,99.90
2019-03-17T10:39:51.866Z,99.90
2019-03-17T10:42:23.038Z,99.90
2019-03-17T10:44:54.145Z,99.90
2019-03-17T10:47:25.173Z,99.90
2019-03-17T10:49:56.420Z,99.90
2019-03-17T10:52:27.582Z,99.90
2019-03-17T10:54:58.636Z,99.90
2019-03-17T10:57:30.081Z,99.90
2019-03-17T11:00:01.247Z,99.90
2019-03-17T11:02:32.722Z,99.90
2019-03-17T11:05:03.920Z,99.90
2019-03-17T11:07:46.654Z,99.90
2019-03-17T11:10:17.726Z,99.90
2019-03-17T11:12:48.890Z,99.90
2019-03-17T11:15:20.156Z,99.90
2019-03-17T11:17:51.256Z,99.90
2019-03-17T11:20:22.308Z,99.90
2019-03-17T11:22:53.710Z,99.90
2019-03-17T11:25:24.792Z,99.90
2019-03-17T11:27:55.835Z,99.90
2019-03-17T11:30:26.946Z,99.90
2019-03-17T11:32:58.011Z,99.90
2019-03-17T11:35:29.556Z,99.90
2019-03-17T11:38:00.664Z,99.90
2019-03-17T11:40:31.749Z,99.90
2019-03-17T11:43:02.854Z,99.90
2019-03-17T11:45:33.920Z,99.90
2019-03-17T11:48:04.988Z,99.90
2019-03-17T11:50:36.100Z,99.90
2019-03-17T11:53:07.247Z,99.90
2019-03-17T11:55:38.389Z,99.90
2019-03-17T11:58:09.442Z,99.90
2019-03-17T12:00:40.506Z,99.90
2019-03-17T12:03:11.581Z,99.90
2019-03-17T12:05:42.663Z,99.90
2019-03-17T12:08:14.091Z,99.90
2019-03-17T12:10:45.172Z,99.90
2019-03-17T12:13:16.279Z,99.90
2019-03-17T12:15:47.654Z,99.90
2019-03-17T12:18:18.698Z,99.90
2019-03-17T12:20:49.759Z,99.90
2019-03-17T12:23:20.896Z,98.90
2019-03-17T12:25:51.949Z,98.70
2019-03-17T12:28:23.868Z,98.70
2019-03-17T12:30:55.094Z,98.50
2019-03-17T12:33:26.136Z,97.80
2019-03-17T12:35:57.268Z,97.90
2019-03-17T12:38:28.375Z,98.70
2019-03-17T12:41:00.540Z,98.60
2019-03-17T12:43:31.646Z,97.70
2019-03-17T12:46:02.955Z,98.30
2019-03-17T12:48:34.074Z,96.40
2019-03-17T12:51:05.548Z,97.60
2019-03-17T12:53:36.684Z,95.50
2019-03-17T12:56:07.793Z,95.00
2019-03-17T12:58:38.956Z,92.20
2019-03-17T13:01:10.168Z,94.00
2019-03-17T13:03:41.376Z,93.20
2019-03-17T13:06:12.464Z,90.50
2019-03-17T13:08:43.494Z,88.80
2019-03-17T13:11:14.624Z,90.20
2019-03-17T13:13:57.662Z,88.50
2019-03-17T13:16:28.960Z,88.50
2019-03-17T13:19:19.367Z,90.20
2019-03-17T13:21:50.638Z,90.40
2019-03-17T13:24:21.705Z,88.10
2019-03-17T13:26:54.077Z,87.10
2019-03-17T13:29:44.315Z,89.90
2019-03-17T13:32:27.121Z,90.20
2019-03-17T13:34:58.222Z,90.40
2019-03-17T13:37:29.593Z,91.70
2019-03-17T13:40:00.848Z,94.20
2019-03-17T13:42:33.891Z,95.60
2019-03-17T13:45:05.988Z,96.60
2019-03-17T13:47:37.558Z,96.70
2019-03-17T13:50:11.379Z,97.30
2019-03-17T13:52:43.840Z,97.90
2019-03-17T13:55:17.032Z,97.90
2019-03-17T13:57:49.832Z,98.60
2019-03-17T14:00:22.007Z,97.20
2019-03-17T14:02:54.400Z,98.10
2019-03-17T14:05:26.591Z,97.80
2019-03-17T14:07:58.744Z,95.90
2019-03-17T14:10:40.384Z,95.30
2019-03-17T14:13:03.732Z,95.90
2019-03-17T14:15:35.221Z,99.10
2019-03-17T14:18:07.248Z,99.90
2019-03-17T14:20:39.126Z,99.90
2019-03-17T14:23:10.629Z,99.90
2019-03-17T14:25:44.030Z,99.90
2019-03-17T14:28:15.711Z,99.90
2019-03-17T14:30:47.204Z,99.90
2019-03-17T14:33:18.690Z,99.90
2019-03-17T14:35:50.447Z,99.90
2019-03-17T14:38:22.690Z,99.90
2019-03-17T14:40:57.127Z,99.90
2019-03-17T14:43:27.326Z,99.90
2019-03-17T14:45:58.576Z,99.90
2019-03-17T14:48:30.190Z,99.90
2019-03-17T14:51:01.485Z,99.90
2019-03-17T14:53:34.238Z,99.90
2019-03-17T14:56:05.912Z,99.90
2019-03-17T15:03:38.182Z,99.90
2019-03-17T15:06:09.832Z,99.90
2019-03-17T15:08:41.302Z,99.90
2019-03-17T15:11:12.715Z,99.90
2019-03-17T15:13:43.924Z,99.90
2019-03-17T15:16:15.168Z,99.90
2019-03-17T15:18:47.133Z,99.90
2019-03-17T15:21:18.708Z,99.90
2019-03-17T15:23:49.874Z,99.90
2019-03-17T15:26:21.092Z,99.90
2019-03-17T15:28:52.477Z,99.90
2019-03-17T15:33:54.375Z,99.90
2019-03-17T15:36:25.466Z,99.90
2019-03-17T15:38:56.508Z,99.90
2019-03-17T15:41:27.700Z,99.90
2019-03-17T15:43:58.802Z,99.90
2019-03-17T15:46:29.943Z,99.90
2019-03-17T15:49:01.098Z,99.90
2019-03-17T15:51:32.298Z,99.90
2019-03-17T15:54:03.364Z,99.90
2019-03-17T15:56:35.811Z,99.90
2019-03-17T15:59:06.872Z,99.90
2019-03-17T16:01:39.143Z,99.90
2019-03-17T16:04:10.332Z,99.90
2019-03-17T16:06:41.478Z,99.90
2019-03-17T16:09:12.509Z,99.90
2019-03-17T16:11:43.628Z,99.90
2019-03-17T16:14:14.722Z,99.90
2019-03-17T16:16:45.862Z,99.90
2019-03-17T16:19:17.285Z,99.90
2019-03-17T16:21:48.331Z,99.90
2019-03-17T16:24:19.428Z,99.90
2019-03-17T16:26:50.584Z,99.90
2019-03-17T16:29:22.804Z,99.90
2019-03-17T16:34:24.590Z,99.90
2019-03-17T16:36:55.807Z,99.90
2019-03-17T16:39:27.217Z,99.90
2019-03-17T16:41:58.352Z,99.90
2019-03-17T16:44:29.499Z,99.90
2019-03-17T16:47:00.617Z,99.90
2019-03-17T16:49:31.836Z,99.90
2019-03-17T16:52:02.966Z,99.90
2019-03-17T16:54:34.196Z,99.90
2019-03-17T16:57:05.333Z,99.90
2019-03-17T16:59:36.457Z,99.90
2019-03-17T17:02:07.655Z,99.90
2019-03-17T17:04:38.926Z,99.90
2019-03-17T17:07:10.080Z,99.90
2019-03-17T17:09:41.242Z,99.90
2019-03-17T17:12:12.327Z,99.90
2019-03-17T17:14:43.450Z,99.90
2019-03-17T17:17:14.598Z,99.90
2019-03-17T17:19:46.191Z,99.90
2019-03-17T17:22:17.378Z,99.90
2019-03-17T17:24:48.600Z,99.90
2019-03-17T17:27:20.704Z,99.90
2019-03-17T17:29:52.046Z,99.90
2019-03-17T17:32:23.153Z,99.90
2019-03-17T17:34:54.392Z,99.90
2019-03-17T17:37:25.478Z,99.90
2019-03-17T17:39:56.590Z,99.90
2019-03-17T17:42:27.680Z,99.90
2019-03-17T17:44:58.838Z,99.90
2019-03-17T17:47:29.948Z,99.90
2019-03-17T17:50:01.046Z,99.90
2019-03-17T17:52:32.193Z,99.90
2019-03-17T17:55:03.249Z,99.90
2019-03-17T17:57:34.430Z,99.90
2019-03-17T18:00:07.134Z,99.90
2019-03-17T18:02:39.252Z,99.90
2019-03-17T18:05:10.448Z,99.90
2019-03-17T18:07:41.546Z,99.90
2019-03-17T18:10:12.597Z,99.90
2019-03-17T18:12:43.718Z,99.90
2019-03-17T18:15:16.072Z,99.90
2019-03-17T18:17:47.114Z,99.90
2019-03-17T18:20:18.472Z,99.90
2019-03-17T18:22:49.524Z,99.90
2019-03-17T18:25:20.639Z,99.90
2019-03-17T18:27:51.800Z,99.90
2019-03-17T18:30:22.858Z,99.90
2019-03-17T18:32:54.026Z,99.90
2019-03-17T18:35:25.074Z,99.90
2019-03-17T18:37:56.242Z,99.90
2019-03-17T18:40:27.598Z,99.90
2019-03-17T18:42:58.746Z,99.90
2019-03-17T18:45:29.840Z,99.90
2019-03-17T18:48:01.107Z,99.90
2019-03-17T18:50:32.242Z,99.90
2019-03-17T18:53:04.512Z,99.90
2019-03-17T18:55:35.848Z,99.90
2019-03-17T18:58:07.167Z,99.90
2019-03-17T19:00:38.269Z,99.90
2019-03-17T19:03:09.500Z,99.90
2019-03-17T19:05:40.606Z,99.90
2019-03-17T19:08:11.751Z,99.90
2019-03-17T19:10:43.149Z,99.90
2019-03-17T19:13:14.384Z,99.90
2019-03-17T19:15:45.452Z,99.90
2019-03-17T19:18:16.578Z,99.90
2019-03-17T19:20:48.278Z,99.90
2019-03-17T19:23:19.318Z,99.90
2019-03-17T19:25:50.442Z,99.90
2019-03-17T19:28:21.644Z,99.90
2019-03-17T19:30:52.720Z,99.90
2019-03-17T19:33:23.877Z,99.90
2019-03-17T19:35:55.337Z,99.90
2019-03-17T19:38:27.048Z,99.90
2019-03-17T19:40:58.154Z,99.90
2019-03-17T19:43:29.192Z,99.90
2019-03-17T19:46:00.792Z,99.90
2019-03-17T19:48:32.029Z,99.90
2019-03-17T19:51:03.129Z,99.90
2019-03-17T19:53:34.200Z,99.90
2019-03-17T19:56:05.774Z,99.90
2019-03-17T19:58:36.856Z,99.90
2019-03-17T20:01:08.065Z,99.90
2019-03-17T20:03:40.225Z,99.90
2019-03-17T20:06:11.354Z,99.90
2019-03-17T20:08:42.547Z,99.90
2019-03-17T20:11:13.881Z,99.90
2019-03-17T20:13:44.974Z,99.90
2019-03-17T20:16:16.328Z,99.90
2019-03-17T20:18:47.733Z,99.90
2019-03-17T20:21:18.939Z,99.90
2019-03-17T20:23:50.188Z,99.90
2019-03-17T20:26:21.325Z,99.90
2019-03-17T20:28:52.400Z,99.90
2019-03-17T20:31:23.568Z,99.90
2019-03-17T20:33:54.854Z,99.90
2019-03-17T20:36:26.119Z,99.90
2019-03-17T20:38:57.542Z,99.90
2019-03-17T20:41:28.764Z,99.90
2019-03-17T20:44:00.077Z,99.90
2019-03-17T20:46:31.352Z,99.90
2019-03-17T20:49:02.642Z,99.90
2019-03-17T20:51:34.002Z,99.90
2019-03-17T20:54:05.082Z,99.90
2019-03-17T20:56:36.732Z,99.90
2019-03-17T20:59:07.810Z,99.90
2019-03-17T21:01:38.970Z,99.90
2019-03-17T21:04:10.155Z,99.90
2019-03-17T21:06:41.252Z,99.90
2019-03-17T21:09:12.434Z,99.90
2019-03-17T21:11:43.601Z,99.90
2019-03-17T21:14:15.449Z,99.90
2019-03-17T21:16:46.564Z,99.90
2019-03-17T21:19:17.752Z,99.90
2019-03-17T21:21:48.948Z,99.90
2019-03-17T21:24:20.179Z,99.90
2019-03-17T21:26:51.576Z,99.90
2019-03-17T21:29:22.702Z,99.90
2019-03-17T21:31:54.027Z,99.90
2019-03-17T21:34:25.182Z,99.90
2019-03-17T21:36:56.316Z,99.90
2019-03-17T21:39:27.463Z,99.90
2019-03-17T21:41:58.666Z,99.90
2019-03-17T21:44:29.858Z,99.90
2019-03-17T21:47:00.978Z,99.90
2019-03-17T21:49:33.364Z,99.90
2019-03-17T21:52:04.700Z,99.90
2019-03-17T21:54:36.131Z,99.90
2019-03-17T21:57:07.690Z,99.90
2019-03-17T21:59:38.885Z,99.90
2019-03-17T22:02:13.051Z,99.90
2019-03-17T22:04:42.848Z,99.90
2019-03-17T22:07:14.142Z,99.90
2019-03-17T22:09:46.390Z,99.90
2019-03-17T22:12:17.685Z,99.90
2019-03-17T22:14:48.824Z,99.90
2019-03-17T22:17:19.952Z,99.90
2019-03-17T22:19:51.104Z,99.90
2019-03-17T22:22:22.182Z,99.90
2019-03-17T22:24:53.401Z,99.90
2019-03-17T22:27:25.693Z,99.90
2019-03-17T22:29:56.800Z,99.90
2019-03-17T22:32:27.864Z,99.90
2019-03-17T22:34:59.038Z,99.90
2019-03-17T22:37:30.248Z,99.90
2019-03-17T22:40:01.426Z,99.90
2019-03-17T22:42:32.544Z,99.90
2019-03-17T22:45:03.788Z,99.90
2019-03-17T22:47:34.864Z,99.90
2019-03-17T22:50:06.840Z,99.90
2019-03-17T22:52:37.936Z,99.90
2019-03-17T22:55:09.170Z,99.90
2019-03-17T22:57:40.581Z,99.90
2019-03-17T23:00:15.093Z,99.90
2019-03-17T23:02:47.856Z,99.90
2019-03-17T23:05:18.944Z,99.90
2019-03-17T23:07:50.059Z,99.90
2019-03-17T23:10:21.170Z,99.90
2019-03-17T23:12:52.322Z,99.90
2019-03-17T23:15:23.388Z,99.90
2019-03-17T23:17:54.536Z,99.90
2019-03-17T23:20:25.674Z,99.90
2019-03-17T23:22:56.712Z,99.90
2019-03-17T23:25:27.966Z,99.90
2019-03-17T23:27:59.088Z,99.90
2019-03-17T23:30:30.307Z,99.90
2019-03-17T23:33:01.458Z,99.90
2019-03-17T23:35:32.553Z,99.90
2019-03-17T23:38:03.855Z,99.90
2019-03-17T23:40:34.981Z,99.90
2019-03-17T23:43:06.098Z,99.90
2019-03-17T23:45:37.144Z,99.90
2019-03-17T23:48:08.312Z,99.90
2019-03-17T23:50:39.590Z,99.90
2019-03-17T23:53:10.753Z,99.90
2019-03-17T23:55:42.017Z,99.90
2019-03-17T23:58:13.318Z,99.90
